sensor_id;sensor_type;location;lat;lon;timestamp;temperature;humidity
8269;DHT22;4174;48.304;16.364;2023-02-13T00:01:22;7.80;99.90
8269;DHT22;4174;48.304;16.364;2023-02-13T00:07:26;7.80;99.90
8269;DHT22;4174;48.304;16.364;2023-02-13T00:13:31;7.80;99.90
8269;DHT22;4174;48.304;16.364;2023-02-13T00:19:33;7.80;99.90
8269;DHT22;4174;48.304;16.364;2023-02-13T00:25:37;7.70;99.90
8269;DHT22;4174;48.304;16.364;2023-02-13T00:31:40;7.60;99.90
8269;DHT22;4174;48.304;16.364;2023-02-13T00:37:43;7.50;99.90
8269;DHT22;4174;48.304;16.364;2023-02-13T00:43:47;7.50;99.90
8269;DHT22;4174;48.304;16.364;2023-02-13T00:49:51;7.40;99.90
8269;DHT22;4174;48.304;16.364;2023-02-13T00:55:54;7.30;99.90
8269;DHT22;4174;48.304;16.364;2023-02-13T01:01:59;7.20;99.90
8269;DHT22;4174;48.304;16.364;2023-02-13T01:08:03;7.10;99.90
8269;DHT22;4174;48.304;16.364;2023-02-13T01:14:06;7.00;99.90
8269;DHT22;4174;48.304;16.364;2023-02-13T01:20:11;7.00;99.90
8269;DHT22;4174;48.304;16.364;2023-02-13T01:26:18;6.90;99.90
8269;DHT22;4174;48.304;16.364;2023-02-13T01:32:19;6.90;99.90
8269;DHT22;4174;48.304;16.364;2023-02-13T01:38:22;6.90;99.90
8269;DHT22;4174;48.304;16.364;2023-02-13T01:50:55;7.00;99.90
8269;DHT22;4174;48.304;16.364;2023-02-13T01:57:01;7.00;99.90
8269;DHT22;4174;48.304;16.364;2023-02-13T02:03:08;7.00;99.90
8269;DHT22;4174;48.304;16.364;2023-02-13T02:09:11;6.90;99.90
8269;DHT22;4174;48.304;16.364;2023-02-13T02:15:14;6.90;99.90
8269;DHT22;4174;48.304;16.364;2023-02-13T02:21:27;6.90;99.90
8269;DHT22;4174;48.304;16.364;2023-02-13T02:40:25;7.00;99.90
8269;DHT22;4174;48.304;16.364;2023-02-13T02:46:31;7.00;99.90
8269;DHT22;4174;48.304;16.364;2023-02-13T02:52:40;7.10;99.90
8269;DHT22;4174;48.304;16.364;2023-02-13T02:58:45;7.10;99.90
8269;DHT22;4174;48.304;16.364;2023-02-13T03:04:52;7.10;99.90
8269;DHT22;4174;48.304;16.364;2023-02-13T03:11:00;7.10;99.90
8269;DHT22;4174;48.304;16.364;2023-02-13T03:17:11;7.00;99.90
8269;DHT22;4174;48.304;16.364;2023-02-13T03:23:24;7.00;99.90
8269;DHT22;4174;48.304;16.364;2023-02-13T03:29:43;7.00;99.90
8269;DHT22;4174;48.304;16.364;2023-02-13T03:36:00;7.00;99.90
8269;DHT22;4174;48.304;16.364;2023-02-13T03:42:29;6.90;99.90
8269;DHT22;4174;48.304;16.364;2023-02-13T03:48:34;7.00;99.90
8269;DHT22;4174;48.304;16.364;2023-02-13T03:54:55;7.00;99.90
8269;DHT22;4174;48.304;16.364;2023-02-13T04:01:06;7.00;99.90
8269;DHT22;4174;48.304;16.364;2023-02-13T04:07:10;7.10;99.90
8269;DHT22;4174;48.304;16.364;2023-02-13T04:13:31;7.10;99.90
8269;DHT22;4174;48.304;16.364;2023-02-13T04:19:35;7.20;99.90
8269;DHT22;4174;48.304;16.364;2023-02-13T04:25:39;7.20;99.90
8269;DHT22;4174;48.304;16.364;2023-02-13T04:31:42;7.20;99.90
8269;DHT22;4174;48.304;16.364;2023-02-13T04:37:45;7.10;99.90
8269;DHT22;4174;48.304;16.364;2023-02-13T04:43:49;7.10;99.90
8269;DHT22;4174;48.304;16.364;2023-02-13T04:49:53;7.10;99.90
8269;DHT22;4174;48.304;16.364;2023-02-13T04:55:57;7.10;99.90
8269;DHT22;4174;48.304;16.364;2023-02-13T05:02:00;7.10;99.90
8269;DHT22;4174;48.304;16.364;2023-02-13T05:08:05;7.10;99.90
8269;DHT22;4174;48.304;16.364;2023-02-13T05:14:08;7.10;99.90
8269;DHT22;4174;48.304;16.364;2023-02-13T05:20:11;7.10;99.90
8269;DHT22;4174;48.304;16.364;2023-02-13T05:26:14;7.00;99.90
8269;DHT22;4174;48.304;16.364;2023-02-13T05:32:18;7.10;99.90
8269;DHT22;4174;48.304;16.364;2023-02-13T05:38:22;7.00;99.90
8269;DHT22;4174;48.304;16.364;2023-02-13T05:44:26;7.00;99.90
8269;DHT22;4174;48.304;16.364;2023-02-13T05:50:31;7.00;99.90
8269;DHT22;4174;48.304;16.364;2023-02-13T05:56:36;7.00;99.90
8269;DHT22;4174;48.304;16.364;2023-02-13T06:02:39;7.00;99.90
8269;DHT22;4174;48.304;16.364;2023-02-13T06:08:42;7.10;99.90
8269;DHT22;4174;48.304;16.364;2023-02-13T06:14:45;7.10;99.90
8269;DHT22;4174;48.304;16.364;2023-02-13T06:20:49;7.00;99.90
8269;DHT22;4174;48.304;16.364;2023-02-13T06:26:53;7.10;99.90
8269;DHT22;4174;48.304;16.364;2023-02-13T06:32:57;7.00;99.90
8269;DHT22;4174;48.304;16.364;2023-02-13T06:39:00;7.10;99.90
8269;DHT22;4174;48.304;16.364;2023-02-13T06:45:05;7.10;99.90
8269;DHT22;4174;48.304;16.364;2023-02-13T06:51:09;7.20;99.90
8269;DHT22;4174;48.304;16.364;2023-02-13T06:57:13;7.20;99.90
8269;DHT22;4174;48.304;16.364;2023-02-13T07:03:16;7.30;99.90
8269;DHT22;4174;48.304;16.364;2023-02-13T07:09:20;7.50;99.90
8269;DHT22;4174;48.304;16.364;2023-02-13T07:15:24;7.50;99.90
8269;DHT22;4174;48.304;16.364;2023-02-13T07:21:27;7.50;99.90
8269;DHT22;4174;48.304;16.364;2023-02-13T07:27:31;7.60;99.90
8269;DHT22;4174;48.304;16.364;2023-02-13T07:33:35;7.60;99.90
8269;DHT22;4174;48.304;16.364;2023-02-13T07:39:38;7.60;99.90
8269;DHT22;4174;48.304;16.364;2023-02-13T07:45:42;7.70;99.90
8269;DHT22;4174;48.304;16.364;2023-02-13T07:51:46;7.70;99.90
8269;DHT22;4174;48.304;16.364;2023-02-13T07:57:49;7.80;99.90
8269;DHT22;4174;48.304;16.364;2023-02-13T08:03:52;7.90;99.90
8269;DHT22;4174;48.304;16.364;2023-02-13T08:09:56;7.90;99.90
8269;DHT22;4174;48.304;16.364;2023-02-13T08:16:06;8.00;99.90
8269;DHT22;4174;48.304;16.364;2023-02-13T08:22:10;8.00;99.90
8269;DHT22;4174;48.304;16.364;2023-02-13T08:28:14;7.90;99.90
8269;DHT22;4174;48.304;16.364;2023-02-13T08:34:17;8.00;99.90
8269;DHT22;4174;48.304;16.364;2023-02-13T08:40:20;8.00;99.90
8269;DHT22;4174;48.304;16.364;2023-02-13T08:46:24;8.10;99.90
8269;DHT22;4174;48.304;16.364;2023-02-13T08:52:27;8.20;99.90
8269;DHT22;4174;48.304;16.364;2023-02-13T08:58:33;8.20;99.90
8269;DHT22;4174;48.304;16.364;2023-02-13T09:04:37;8.40;99.90
8269;DHT22;4174;48.304;16.364;2023-02-13T09:10:41;8.30;99.90
8269;DHT22;4174;48.304;16.364;2023-02-13T09:16:44;8.40;99.90
8269;DHT22;4174;48.304;16.364;2023-02-13T09:22:47;8.40;99.90
8269;DHT22;4174;48.304;16.364;2023-02-13T09:28:51;8.40;99.90
8269;DHT22;4174;48.304;16.364;2023-02-13T09:34:55;8.40;99.90
8269;DHT22;4174;48.304;16.364;2023-02-13T09:41:01;8.60;99.90
8269;DHT22;4174;48.304;16.364;2023-02-13T09:47:23;8.60;99.90
8269;DHT22;4174;48.304;16.364;2023-02-13T09:53:23;8.70;99.90
8269;DHT22;4174;48.304;16.364;2023-02-13T09:59:38;9.00;99.90
8269;DHT22;4174;48.304;16.364;2023-02-13T10:06:03;8.90;99.90
8269;DHT22;4174;48.304;16.364;2023-02-13T10:12:45;9.10;99.90
8269;DHT22;4174;48.304;16.364;2023-02-13T10:19:08;9.30;99.90
8269;DHT22;4174;48.304;16.364;2023-02-13T10:25:33;9.50;99.90
8269;DHT22;4174;48.304;16.364;2023-02-13T10:31:33;9.80;99.90
8269;DHT22;4174;48.304;16.364;2023-02-13T10:37:36;9.80;99.90
8269;DHT22;4174;48.304;16.364;2023-02-13T10:50:26;9.90;99.90
8269;DHT22;4174;48.304;16.364;2023-02-13T10:56:38;10.20;99.90
8269;DHT22;4174;48.304;16.364;2023-02-13T11:02:40;10.30;99.90
8269;DHT22;4174;48.304;16.364;2023-02-13T11:08:46;10.40;99.90
8269;DHT22;4174;48.304;16.364;2023-02-13T11:14:58;10.50;99.90
8269;DHT22;4174;48.304;16.364;2023-02-13T11:21:02;10.60;99.90
8269;DHT22;4174;48.304;16.364;2023-02-13T11:27:06;10.70;99.90
8269;DHT22;4174;48.304;16.364;2023-02-13T11:39:25;10.70;99.90
8269;DHT22;4174;48.304;16.364;2023-02-13T11:45:29;10.70;99.90
8269;DHT22;4174;48.304;16.364;2023-02-13T11:51:40;10.70;99.90
8269;DHT22;4174;48.304;16.364;2023-02-13T11:57:45;10.40;99.90
8269;DHT22;4174;48.304;16.364;2023-02-13T12:03:56;10.40;99.90
8269;DHT22;4174;48.304;16.364;2023-02-13T12:10:04;10.10;99.90
8269;DHT22;4174;48.304;16.364;2023-02-13T12:16:09;10.10;99.90
8269;DHT22;4174;48.304;16.364;2023-02-13T12:23:32;10.00;99.90
8269;DHT22;4174;48.304;16.364;2023-02-13T12:29:15;10.20;99.90
8269;DHT22;4174;48.304;16.364;2023-02-13T12:35:34;10.20;99.90
8269;DHT22;4174;48.304;16.364;2023-02-13T12:41:54;10.40;99.90
8269;DHT22;4174;48.304;16.364;2023-02-13T12:54:30;10.80;99.90
8269;DHT22;4174;48.304;16.364;2023-02-13T13:07:15;12.80;99.90
8269;DHT22;4174;48.304;16.364;2023-02-13T13:19:48;12.70;99.90
8269;DHT22;4174;48.304;16.364;2023-02-13T13:25:51;12.60;99.90
8269;DHT22;4174;48.304;16.364;2023-02-13T13:32:07;12.70;99.90
8269;DHT22;4174;48.304;16.364;2023-02-13T13:38:14;12.60;99.90
8269;DHT22;4174;48.304;16.364;2023-02-13T13:45:49;12.40;99.90
8269;DHT22;4174;48.304;16.364;2023-02-13T13:51:17;12.30;99.90
8269;DHT22;4174;48.304;16.364;2023-02-13T13:57:22;11.90;99.90
8269;DHT22;4174;48.304;16.364;2023-02-13T14:03:33;11.90;99.90
8269;DHT22;4174;48.304;16.364;2023-02-13T14:09:37;11.00;99.90
8269;DHT22;4174;48.304;16.364;2023-02-13T14:15:54;11.00;99.90
8269;DHT22;4174;48.304;16.364;2023-02-13T14:28:21;11.00;99.90
8269;DHT22;4174;48.304;16.364;2023-02-13T14:34:25;10.80;99.90
8269;DHT22;4174;48.304;16.364;2023-02-13T14:40:30;10.80;99.90
8269;DHT22;4174;48.304;16.364;2023-02-13T14:46:33;10.80;99.90
8269;DHT22;4174;48.304;16.364;2023-02-13T14:52:37;10.90;99.90
8269;DHT22;4174;48.304;16.364;2023-02-13T14:58:46;10.60;99.90
8269;DHT22;4174;48.304;16.364;2023-02-13T15:04:48;10.40;99.90
8269;DHT22;4174;48.304;16.364;2023-02-13T15:10:51;10.50;99.90
8269;DHT22;4174;48.304;16.364;2023-02-13T15:16:57;10.50;99.90
8269;DHT22;4174;48.304;16.364;2023-02-13T15:23:19;10.50;99.90
8269;DHT22;4174;48.304;16.364;2023-02-13T15:29:22;10.70;99.90
8269;DHT22;4174;48.304;16.364;2023-02-13T15:35:28;10.70;99.90
8269;DHT22;4174;48.304;16.364;2023-02-13T15:41:36;10.50;99.90
8269;DHT22;4174;48.304;16.364;2023-02-13T15:47:38;10.20;99.90
8269;DHT22;4174;48.304;16.364;2023-02-13T15:53:51;10.10;99.90
8269;DHT22;4174;48.304;16.364;2023-02-13T15:59:55;10.00;99.90
8269;DHT22;4174;48.304;16.364;2023-02-13T16:05:59;10.00;99.90
8269;DHT22;4174;48.304;16.364;2023-02-13T16:12:06;10.00;99.90
8269;DHT22;4174;48.304;16.364;2023-02-13T16:18:16;9.90;99.90
8269;DHT22;4174;48.304;16.364;2023-02-13T16:24:16;10.10;99.90
8269;DHT22;4174;48.304;16.364;2023-02-13T16:30:30;10.00;99.90
8269;DHT22;4174;48.304;16.364;2023-02-13T16:36:35;10.00;99.90
8269;DHT22;4174;48.304;16.364;2023-02-13T16:42:39;10.00;99.90
8269;DHT22;4174;48.304;16.364;2023-02-13T16:48:43;10.00;99.90
8269;DHT22;4174;48.304;16.364;2023-02-13T16:54:52;9.90;99.90
8269;DHT22;4174;48.304;16.364;2023-02-13T17:00:55;9.80;99.90
8269;DHT22;4174;48.304;16.364;2023-02-13T17:06:59;9.60;99.90
8269;DHT22;4174;48.304;16.364;2023-02-13T17:13:12;9.60;99.90
8269;DHT22;4174;48.304;16.364;2023-02-13T17:19:17;9.60;99.90
8269;DHT22;4174;48.304;16.364;2023-02-13T17:25:23;9.60;99.90
8269;DHT22;4174;48.304;16.364;2023-02-13T17:31:25;9.50;99.90
8269;DHT22;4174;48.304;16.364;2023-02-13T17:37:30;9.50;99.90
8269;DHT22;4174;48.304;16.364;2023-02-13T17:43:33;9.50;99.90
8269;DHT22;4174;48.304;16.364;2023-02-13T17:49:37;9.50;99.90
8269;DHT22;4174;48.304;16.364;2023-02-13T17:55:42;9.50;99.90
8269;DHT22;4174;48.304;16.364;2023-02-13T18:01:45;9.50;99.90
8269;DHT22;4174;48.304;16.364;2023-02-13T18:07:49;9.50;99.90
8269;DHT22;4174;48.304;16.364;2023-02-13T18:13:52;9.50;99.90
8269;DHT22;4174;48.304;16.364;2023-02-13T18:19:56;9.40;99.90
8269;DHT22;4174;48.304;16.364;2023-02-13T18:26:03;9.20;99.90
8269;DHT22;4174;48.304;16.364;2023-02-13T18:32:05;9.20;99.90
8269;DHT22;4174;48.304;16.364;2023-02-13T18:38:08;9.10;99.90
8269;DHT22;4174;48.304;16.364;2023-02-13T18:44:11;9.00;99.90
8269;DHT22;4174;48.304;16.364;2023-02-13T18:50:15;8.80;99.90
8269;DHT22;4174;48.304;16.364;2023-02-13T18:56:19;8.70;99.90
8269;DHT22;4174;48.304;16.364;2023-02-13T19:02:22;8.80;99.90
8269;DHT22;4174;48.304;16.364;2023-02-13T19:08:26;8.80;99.90
8269;DHT22;4174;48.304;16.364;2023-02-13T19:14:29;8.80;99.90
8269;DHT22;4174;48.304;16.364;2023-02-13T19:20:33;8.70;99.90
8269;DHT22;4174;48.304;16.364;2023-02-13T19:26:36;8.80;99.90
8269;DHT22;4174;48.304;16.364;2023-02-13T19:32:40;8.80;99.90
8269;DHT22;4174;48.304;16.364;2023-02-13T19:38:45;8.80;99.90
8269;DHT22;4174;48.304;16.364;2023-02-13T19:44:48;8.80;99.90
8269;DHT22;4174;48.304;16.364;2023-02-13T19:50:52;8.80;99.90
8269;DHT22;4174;48.304;16.364;2023-02-13T19:56:56;8.80;99.90
8269;DHT22;4174;48.304;16.364;2023-02-13T20:03:00;8.80;99.90
8269;DHT22;4174;48.304;16.364;2023-02-13T20:09:04;8.80;99.90
8269;DHT22;4174;48.304;16.364;2023-02-13T20:15:07;8.50;99.90
8269;DHT22;4174;48.304;16.364;2023-02-13T20:21:12;8.40;99.90
8269;DHT22;4174;48.304;16.364;2023-02-13T20:27:14;8.60;99.90
8269;DHT22;4174;48.304;16.364;2023-02-13T20:33:18;8.70;99.90
8269;DHT22;4174;48.304;16.364;2023-02-13T20:39:22;8.60;99.90
8269;DHT22;4174;48.304;16.364;2023-02-13T20:45:25;8.60;99.90
8269;DHT22;4174;48.304;16.364;2023-02-13T20:51:29;8.60;99.90
8269;DHT22;4174;48.304;16.364;2023-02-13T20:57:34;8.60;99.90
8269;DHT22;4174;48.304;16.364;2023-02-13T21:03:37;8.50;99.90
8269;DHT22;4174;48.304;16.364;2023-02-13T21:09:41;8.50;99.90
8269;DHT22;4174;48.304;16.364;2023-02-13T21:15:44;8.50;99.90
8269;DHT22;4174;48.304;16.364;2023-02-13T21:21:48;8.40;99.90
8269;DHT22;4174;48.304;16.364;2023-02-13T21:27:56;8.20;99.90
8269;DHT22;4174;48.304;16.364;2023-02-13T21:34:03;8.00;99.90
8269;DHT22;4174;48.304;16.364;2023-02-13T21:40:07;7.80;99.90
8269;DHT22;4174;48.304;16.364;2023-02-13T21:46:12;7.60;99.90
8269;DHT22;4174;48.304;16.364;2023-02-13T21:52:15;7.50;99.90
8269;DHT22;4174;48.304;16.364;2023-02-13T21:58:19;7.20;99.90
8269;DHT22;4174;48.304;16.364;2023-02-13T22:04:23;7.20;99.90
8269;DHT22;4174;48.304;16.364;2023-02-13T22:10:26;7.20;99.90
8269;DHT22;4174;48.304;16.364;2023-02-13T22:16:32;7.20;99.90
8269;DHT22;4174;48.304;16.364;2023-02-13T22:22:33;7.30;99.90
8269;DHT22;4174;48.304;16.364;2023-02-13T22:28:37;7.40;99.90
8269;DHT22;4174;48.304;16.364;2023-02-13T22:34:41;7.50;99.90
8269;DHT22;4174;48.304;16.364;2023-02-13T22:40:44;7.40;99.90
8269;DHT22;4174;48.304;16.364;2023-02-13T22:46:48;7.30;99.90
8269;DHT22;4174;48.304;16.364;2023-02-13T22:52:53;7.10;99.90
8269;DHT22;4174;48.304;16.364;2023-02-13T22:58:57;7.00;99.90
8269;DHT22;4174;48.304;16.364;2023-02-13T23:05:00;7.00;99.90
8269;DHT22;4174;48.304;16.364;2023-02-13T23:11:06;6.80;99.90
8269;DHT22;4174;48.304;16.364;2023-02-13T23:17:15;6.70;99.90
8269;DHT22;4174;48.304;16.364;2023-02-13T23:23:24;6.70;99.90
8269;DHT22;4174;48.304;16.364;2023-02-13T23:29:29;6.80;99.90
8269;DHT22;4174;48.304;16.364;2023-02-13T23:35:33;6.80;99.90
8269;DHT22;4174;48.304;16.364;2023-02-13T23:41:37;6.80;99.90
8269;DHT22;4174;48.304;16.364;2023-02-13T23:47:41;6.80;99.90
8269;DHT22;4174;48.304;16.364;2023-02-13T23:53:46;6.80;99.90
8269;DHT22;4174;48.304;16.364;2023-02-13T23:59:50;6.90;99.90
